createdAt,value
2022-09-01T00:00:15.036Z,95.20
2022-09-01T00:02:43.463Z,95.20
2022-09-01T00:05:13.517Z,95.30
2022-09-01T00:07:40.700Z,95.60
2022-09-01T00:10:09.945Z,95.50
2022-09-01T00:12:42.009Z,95.30
2022-09-01T00:15:11.586Z,95.60
2022-09-01T00:17:39.090Z,95.60
2022-09-01T00:20:08.102Z,95.40
2022-09-01T00:22:38.065Z,95.20
2022-09-01T00:25:09.741Z,95.30
2022-09-01T00:27:39.360Z,95.20
2022-09-01T00:30:09.895Z,96.00
2022-09-01T00:32:37.032Z,96.20
2022-09-01T00:35:05.652Z,96.10
2022-09-01T00:37:35.636Z,95.90
2022-09-01T00:40:03.702Z,95.90
2022-09-01T00:42:30.920Z,96.20
2022-09-01T00:44:58.142Z,96.60
2022-09-01T00:47:29.435Z,96.30
2022-09-01T00:49:56.788Z,95.80
2022-09-01T00:52:33.663Z,95.70
2022-09-01T00:55:08.995Z,95.40
2022-09-01T00:57:39.785Z,95.80
2022-09-01T01:00:12.415Z,95.70
2022-09-01T01:02:42.425Z,95.70
2022-09-01T01:05:14.291Z,95.60
2022-09-01T01:07:47.671Z,95.40
2022-09-01T01:10:19.546Z,95.30
2022-09-01T01:12:53.291Z,95.50
2022-09-01T01:15:21.229Z,95.40
2022-09-01T01:17:49.690Z,95.50
2022-09-01T01:20:38.594Z,95.80
2022-09-01T01:23:15.877Z,95.40
2022-09-01T01:25:48.929Z,95.60
2022-09-01T01:28:20.535Z,95.50
2022-09-01T01:30:52.398Z,95.50
2022-09-01T01:33:23.412Z,96.10
2022-09-01T01:35:57.574Z,96.00
2022-09-01T01:38:25.725Z,95.90
2022-09-01T01:41:01.426Z,96.30
2022-09-01T01:43:29.124Z,96.40
2022-09-01T01:46:02.839Z,95.70
2022-09-01T01:48:39.678Z,96.10
2022-09-01T01:51:13.976Z,96.10
2022-09-01T01:53:47.871Z,96.10
2022-09-01T01:56:18.547Z,96.30
2022-09-01T01:58:46.281Z,96.20
2022-09-01T02:01:13.349Z,96.10
2022-09-01T02:03:41.171Z,96.30
2022-09-01T02:06:11.973Z,96.10
2022-09-01T02:08:41.204Z,96.20
2022-09-01T02:11:09.041Z,96.10
2022-09-01T02:13:37.365Z,95.90
2022-09-01T02:16:09.617Z,95.90
2022-09-01T02:18:42.762Z,95.70
2022-09-01T02:21:18.334Z,95.90
2022-09-01T02:23:48.395Z,96.10
2022-09-01T02:26:19.114Z,96.30
2022-09-01T02:28:55.763Z,96.30
2022-09-01T02:31:24.006Z,96.10
2022-09-01T02:33:51.353Z,96.30
2022-09-01T02:36:19.674Z,96.10
2022-09-01T02:38:53.663Z,96.50
2022-09-01T02:41:25.234Z,96.70
2022-09-01T02:43:54.271Z,96.80
2022-09-01T02:46:24.930Z,96.90
2022-09-01T02:48:52.598Z,96.70
2022-09-01T02:51:25.362Z,96.60
2022-09-01T02:53:53.576Z,96.80
2022-09-01T02:56:25.239Z,97.00
2022-09-01T02:58:54.942Z,97.20
2022-09-01T03:01:25.665Z,97.20
2022-09-01T03:03:58.502Z,97.30
2022-09-01T03:06:26.650Z,97.50
2022-09-01T03:08:59.582Z,97.70
2022-09-01T03:11:29.186Z,98.10
2022-09-01T03:13:57.534Z,98.40
2022-09-01T03:16:24.810Z,98.00
2022-09-01T03:18:52.872Z,97.90
2022-09-01T03:21:20.891Z,97.80
2022-09-01T03:23:55.055Z,97.50
2022-09-01T03:26:33.843Z,97.90
2022-09-01T03:29:03.201Z,97.90
2022-09-01T03:31:31.784Z,98.00
2022-09-01T03:33:59.675Z,98.10
2022-09-01T03:36:28.581Z,98.10
2022-09-01T03:38:56.832Z,98.20
2022-09-01T03:41:31.058Z,98.10
2022-09-01T03:43:59.505Z,98.30
2022-09-01T03:46:36.336Z,98.20
2022-09-01T03:49:07.307Z,98.10
2022-09-01T03:51:35.222Z,98.10
2022-09-01T03:54:02.363Z,98.00
2022-09-01T03:56:29.917Z,98.20
2022-09-01T03:58:59.645Z,98.50
2022-09-01T04:01:32.802Z,98.50
2022-09-01T04:04:01.209Z,98.90
2022-09-01T04:06:30.459Z,99.20
2022-09-01T04:09:02.529Z,99.10
2022-09-01T04:11:31.057Z,99.20
2022-09-01T04:13:58.629Z,98.90
2022-09-01T04:16:48.477Z,98.50
2022-09-01T04:19:25.485Z,98.20
2022-09-01T04:21:55.818Z,98.90
2022-09-01T04:24:24.783Z,99.20
2022-09-01T04:26:52.889Z,99.40
2022-09-01T04:29:27.352Z,99.40
2022-09-01T04:32:01.898Z,98.80
2022-09-01T04:34:40.381Z,99.30
2022-09-01T04:37:12.925Z,99.10
2022-09-01T04:39:40.655Z,98.70
2022-09-01T04:42:09.182Z,98.60
2022-09-01T04:44:36.964Z,99.00
2022-09-01T04:47:15.020Z,99.40
2022-09-01T04:49:43.520Z,99.20
2022-09-01T04:52:10.569Z,98.70
2022-09-01T04:54:40.850Z,98.80
2022-09-01T04:57:07.997Z,98.70
2022-09-01T04:59:38.527Z,98.90
2022-09-01T05:02:09.589Z,98.90
2022-09-01T05:04:41.699Z,99.00
2022-09-01T05:07:14.287Z,98.70
2022-09-01T05:09:41.422Z,98.60
2022-09-01T05:12:15.575Z,98.40
2022-09-01T05:14:48.559Z,98.30
2022-09-01T05:17:19.324Z,98.90
2022-09-01T05:19:54.290Z,98.90
2022-09-01T05:22:25.368Z,98.70
2022-09-01T05:24:55.632Z,98.80
2022-09-01T05:27:23.096Z,98.80
2022-09-01T05:29:52.715Z,98.50
2022-09-01T05:32:21.903Z,98.40
2022-09-01T05:34:51.888Z,98.60
2022-09-01T05:37:28.770Z,99.10
2022-09-01T05:39:58.974Z,99.40
2022-09-01T05:42:28.563Z,99.20
2022-09-01T05:44:58.059Z,99.20
2022-09-01T05:47:26.242Z,98.40
2022-09-01T05:49:55.355Z,98.40
2022-09-01T05:52:25.087Z,98.20
2022-09-01T05:54:53.673Z,98.00
2022-09-01T05:57:34.222Z,97.60
2022-09-01T06:00:11.096Z,97.10
2022-09-01T06:02:40.172Z,96.90
2022-09-01T06:05:10.879Z,96.90
2022-09-01T06:07:40.630Z,96.50
2022-09-01T06:10:12.894Z,96.20
2022-09-01T06:12:40.666Z,96.00
2022-09-01T06:15:15.636Z,95.90
2022-09-01T06:17:44.131Z,95.80
2022-09-01T06:20:18.143Z,96.10
2022-09-01T06:22:45.507Z,96.60
2022-09-01T06:25:12.664Z,96.50
2022-09-01T06:27:42.647Z,96.50
2022-09-01T06:30:23.846Z,96.70
2022-09-01T06:32:52.188Z,97.00
2022-09-01T06:35:25.101Z,97.10
2022-09-01T06:37:52.880Z,97.40
2022-09-01T06:40:20.184Z,97.50
2022-09-01T06:42:53.218Z,96.20
2022-09-01T06:45:22.938Z,95.80
2022-09-01T06:47:59.437Z,95.10
2022-09-01T06:53:37.261Z,94.20
2022-09-01T06:56:09.091Z,93.70
2022-09-01T06:58:38.012Z,93.60
2022-09-01T07:01:15.429Z,93.50
2022-09-01T07:03:43.571Z,93.30
2022-09-01T07:06:59.095Z,93.10
2022-09-01T07:17:26.615Z,92.60
2022-09-01T07:19:54.096Z,92.40
2022-09-01T07:25:17.470Z,92.20
2022-09-01T07:27:49.105Z,92.10
2022-09-01T07:30:24.283Z,92.10
2022-09-01T07:32:54.124Z,92.00
2022-09-01T07:35:24.346Z,92.00
2022-09-01T07:38:47.809Z,92.00
2022-09-01T07:42:31.320Z,92.80
2022-09-01T07:43:44.827Z,91.40
2022-09-01T07:49:03.441Z,91.30
2022-09-01T07:51:51.246Z,91.40
2022-09-01T07:54:21.320Z,91.30
2022-09-01T07:56:48.808Z,91.30
2022-09-01T07:59:15.988Z,91.40
2022-09-01T08:01:47.378Z,91.40
2022-09-01T08:04:14.886Z,91.50
2022-09-01T08:06:42.096Z,91.60
2022-09-01T08:09:32.927Z,91.30
2022-09-01T08:12:02.598Z,91.20
2022-09-01T08:14:33.788Z,91.00
2022-09-01T08:17:34.318Z,91.10
2022-09-01T08:19:50.415Z,91.10
2022-09-01T08:22:17.530Z,91.00
2022-09-01T08:24:44.549Z,91.20
2022-09-01T08:27:13.029Z,91.10
2022-09-01T08:29:41.160Z,91.40
2022-09-01T08:32:08.896Z,91.20
2022-09-01T08:34:39.528Z,90.90
2022-09-01T08:37:07.432Z,90.80
2022-09-01T08:39:34.893Z,90.90
2022-09-01T08:42:16.203Z,90.90
2022-09-01T08:44:54.879Z,90.70
2022-09-01T08:47:39.496Z,90.70
2022-09-01T08:50:12.559Z,90.90
2022-09-01T08:52:45.172Z,90.80
2022-09-01T08:55:22.062Z,90.20
2022-09-01T08:57:54.824Z,90.10
2022-09-01T09:00:28.889Z,90.00
2022-09-01T09:03:09.648Z,89.10
2022-09-01T09:05:50.851Z,88.60
2022-09-01T09:08:50.335Z,88.50
2022-09-01T09:11:50.406Z,88.40
2022-09-01T09:14:38.288Z,88.60
2022-09-01T09:17:06.335Z,88.60
2022-09-01T09:19:37.129Z,88.30
2022-09-01T09:22:11.346Z,88.10
2022-09-01T09:24:48.148Z,88.10
2022-09-01T09:27:23.565Z,87.50
2022-09-01T09:29:57.311Z,88.30
2022-09-01T09:33:11.764Z,87.40
2022-09-01T09:35:36.600Z,86.60
2022-09-01T09:38:24.359Z,85.90
2022-09-01T09:41:19.964Z,85.20
2022-09-01T09:43:58.654Z,84.70
2022-09-01T09:46:38.175Z,84.50
2022-09-01T09:49:36.658Z,85.30
2022-09-01T09:52:17.754Z,84.50
2022-09-01T09:55:03.848Z,84.30
2022-09-01T09:57:41.392Z,84.90
2022-09-01T10:00:24.073Z,85.00
2022-09-01T10:02:58.295Z,84.30
2022-09-01T10:05:40.026Z,84.40
2022-09-01T10:08:11.688Z,84.50
2022-09-01T10:10:42.420Z,82.80
2022-09-01T10:13:14.806Z,82.60
2022-09-01T10:15:50.991Z,82.70
2022-09-01T10:18:29.074Z,83.30
2022-09-01T10:21:00.627Z,82.90
2022-09-01T10:23:31.076Z,82.00
2022-09-01T10:26:09.084Z,82.10
2022-09-01T10:28:49.906Z,82.30
2022-09-01T10:31:19.453Z,80.30
2022-09-01T10:33:50.907Z,80.10
2022-09-01T10:36:19.939Z,80.30
2022-09-01T10:38:53.647Z,79.70
2022-09-01T10:42:00.736Z,78.50
2022-09-01T10:44:34.454Z,79.40
2022-09-01T10:47:13.597Z,77.30
2022-09-01T10:50:07.698Z,77.40
2022-09-01T10:53:05.621Z,77.50
2022-09-01T10:55:41.547Z,78.20
2022-09-01T11:02:27.699Z,76.50
2022-09-01T11:05:18.290Z,77.20
2022-09-01T11:08:01.128Z,76.60
2022-09-01T11:10:53.217Z,76.40
2022-09-01T11:13:39.553Z,75.90
2022-09-01T11:16:50.021Z,76.20
2022-09-01T11:19:44.143Z,75.50
2022-09-01T11:22:26.441Z,75.60
2022-09-01T11:25:43.697Z,75.70
2022-09-01T11:28:47.098Z,75.20
2022-09-01T11:31:31.850Z,75.00
2022-09-01T11:34:16.335Z,73.80
2022-09-01T11:37:06.117Z,74.00
2022-09-01T11:39:42.177Z,74.10
2022-09-01T11:42:22.021Z,74.30
2022-09-01T11:44:57.923Z,74.40
2022-09-01T11:47:28.814Z,74.40
2022-09-01T11:50:02.433Z,74.70
2022-09-01T11:52:34.856Z,74.50
2022-09-01T11:55:07.727Z,74.20
2022-09-01T11:57:38.193Z,74.10
2022-09-01T12:00:11.023Z,74.10
2022-09-01T12:02:48.247Z,74.00
2022-09-01T12:05:30.370Z,73.40
2022-09-01T12:07:58.641Z,73.70
2022-09-01T12:10:33.629Z,73.90
2022-09-01T12:13:05.948Z,73.40
2022-09-01T12:15:36.553Z,73.20
2022-09-01T12:18:15.279Z,73.00
2022-09-01T12:20:42.436Z,71.90
2022-09-01T12:23:26.611Z,71.50
2022-09-01T12:25:57.813Z,72.60
2022-09-01T12:28:30.632Z,71.90
2022-09-01T12:30:59.541Z,70.70
2022-09-01T12:33:29.520Z,70.10
2022-09-01T12:36:20.394Z,70.40
2022-09-01T12:38:47.723Z,70.90
2022-09-01T12:41:33.468Z,71.00
2022-09-01T12:44:30.483Z,69.80
2022-09-01T12:47:00.581Z,70.00
2022-09-01T12:49:50.221Z,69.70
2022-09-01T12:52:25.951Z,68.80
2022-09-01T12:55:09.212Z,68.70
2022-09-01T12:57:49.261Z,68.70
2022-09-01T13:00:23.318Z,68.80
2022-09-01T13:03:05.249Z,68.60
2022-09-01T13:05:42.364Z,68.10
2022-09-01T13:08:18.142Z,69.10
2022-09-01T13:10:55.069Z,68.00
2022-09-01T13:13:25.714Z,67.50
2022-09-01T13:15:56.013Z,66.80
2022-09-01T13:18:25.120Z,67.70
2022-09-01T13:20:53.371Z,66.80
2022-09-01T13:23:24.138Z,66.80
2022-09-01T13:25:54.057Z,67.00
2022-09-01T13:36:52.364Z,67.60
2022-09-01T13:39:25.315Z,67.40
2022-09-01T13:41:52.827Z,67.10
2022-09-01T13:44:21.313Z,66.70
2022-09-01T13:49:43.519Z,66.60
2022-09-01T13:52:11.047Z,66.90
2022-09-01T13:54:38.188Z,67.20
2022-09-01T13:57:05.391Z,67.50
2022-09-01T13:59:34.008Z,67.60
2022-09-01T14:02:01.501Z,66.90
2022-09-01T14:04:28.797Z,66.70
2022-09-01T14:06:56.460Z,66.60
2022-09-01T14:09:26.726Z,66.80
2022-09-01T14:11:54.367Z,66.40
2022-09-01T14:14:24.526Z,66.40
2022-09-01T14:16:53.725Z,66.10
2022-09-01T14:19:20.994Z,66.20
2022-09-01T14:21:50.958Z,65.20
2022-09-01T14:24:21.548Z,65.30
2022-09-01T14:26:51.493Z,64.90
2022-09-01T14:29:18.635Z,64.90
2022-09-01T14:31:45.787Z,65.00
2022-09-01T14:34:15.421Z,65.00
2022-09-01T14:36:49.738Z,64.70
2022-09-01T14:39:20.154Z,64.70
2022-09-01T14:41:50.376Z,64.30
2022-09-01T14:44:17.471Z,64.70
2022-09-01T14:46:46.218Z,64.90
2022-09-01T14:49:20.290Z,64.80
2022-09-01T14:54:43.455Z,64.60
2022-09-01T14:59:58.260Z,64.40
2022-09-01T15:02:28.295Z,64.40
2022-09-01T15:04:57.240Z,64.00
2022-09-01T15:07:24.383Z,63.50
2022-09-01T15:09:51.574Z,63.60
2022-09-01T15:12:19.954Z,63.20
2022-09-01T15:14:47.107Z,63.50
2022-09-01T15:17:14.129Z,63.30
2022-09-01T15:19:41.217Z,63.80
2022-09-01T15:22:17.948Z,62.50
2022-09-01T15:24:45.030Z,62.50
2022-09-01T15:27:14.391Z,61.90
2022-09-01T15:29:55.918Z,62.20
2022-09-01T15:32:28.213Z,62.00
2022-09-01T15:34:55.688Z,62.00
2022-09-01T15:37:24.259Z,62.00
2022-09-01T15:39:52.139Z,62.00
2022-09-01T15:42:22.315Z,62.00
2022-09-01T15:44:49.545Z,61.90
2022-09-01T15:47:16.943Z,61.40
2022-09-01T15:49:47.061Z,61.50
2022-09-01T15:52:16.398Z,61.40
2022-09-01T15:54:44.872Z,62.10
2022-09-01T15:57:11.982Z,61.30
2022-09-01T15:59:40.261Z,61.50
2022-09-01T16:02:07.994Z,61.30
2022-09-01T16:04:35.179Z,61.30
2022-09-01T16:07:05.566Z,61.40
2022-09-01T16:09:37.333Z,61.30
2022-09-01T16:12:08.133Z,61.40
2022-09-01T16:14:35.660Z,61.30
2022-09-01T16:17:07.634Z,61.10
2022-09-01T16:19:47.843Z,61.10
2022-09-01T16:22:23.839Z,61.00
2022-09-01T16:24:54.174Z,61.30
2022-09-01T16:27:33.839Z,61.50
2022-09-01T16:30:05.045Z,61.40
2022-09-01T16:32:35.508Z,60.90
2022-09-01T16:35:04.220Z,60.40
2022-09-01T16:37:43.739Z,60.50
2022-09-01T16:40:23.522Z,60.80
2022-09-01T16:43:05.497Z,60.70
2022-09-01T16:45:44.937Z,60.90
2022-09-01T16:48:19.782Z,60.50
2022-09-01T16:50:56.951Z,60.20
2022-09-01T16:53:48.845Z,60.00
2022-09-01T16:56:25.184Z,59.60
2022-09-01T16:59:03.429Z,58.90
2022-09-01T17:01:41.650Z,58.80
2022-09-01T17:04:26.027Z,58.80
2022-09-01T17:06:59.860Z,58.80
2022-09-01T17:09:35.149Z,58.60
2022-09-01T17:12:23.511Z,58.70
2022-09-01T17:14:59.489Z,58.90
2022-09-01T17:17:39.246Z,58.60
2022-09-01T17:20:08.595Z,58.70
2022-09-01T17:22:37.648Z,58.90
2022-09-01T17:25:08.157Z,59.10
2022-09-01T17:27:41.684Z,59.10
2022-09-01T17:30:11.245Z,59.10
2022-09-01T17:33:01.151Z,59.10
2022-09-01T17:35:39.357Z,59.30
2022-09-01T17:38:20.040Z,59.40
2022-09-01T17:41:05.378Z,59.30
2022-09-01T17:43:46.105Z,59.20
2022-09-01T17:46:28.438Z,59.30
2022-09-01T17:49:15.972Z,59.50
2022-09-01T17:51:52.333Z,59.80
2022-09-01T17:54:33.815Z,59.90
2022-09-01T17:57:11.667Z,60.00
2022-09-01T17:59:47.275Z,60.10
2022-09-01T18:02:50.552Z,60.30
2022-09-01T18:05:24.763Z,60.70
2022-09-01T18:08:15.569Z,61.20
2022-09-01T18:10:53.839Z,61.80
2022-09-01T18:13:49.225Z,62.50
2022-09-01T18:16:18.340Z,63.10
2022-09-01T18:18:50.971Z,63.70
2022-09-01T18:21:28.501Z,64.40
2022-09-01T18:24:13.662Z,64.90
2022-09-01T18:26:48.121Z,65.70
2022-09-01T18:29:18.049Z,65.90
2022-09-01T18:32:04.132Z,66.40
2022-09-01T18:34:57.986Z,66.80
2022-09-01T18:37:32.680Z,67.40
2022-09-01T18:40:14.301Z,67.70
2022-09-01T18:42:50.280Z,68.40
2022-09-01T18:45:34.209Z,70.50
2022-09-01T18:48:15.760Z,71.40
2022-09-01T18:50:53.781Z,70.10
2022-09-01T18:53:35.416Z,69.90
2022-09-01T18:56:12.089Z,70.00
2022-09-01T18:58:53.630Z,70.40
2022-09-01T19:01:33.688Z,70.10
2022-09-01T19:04:12.772Z,70.10
2022-09-01T19:06:53.926Z,70.50
2022-09-01T19:09:29.155Z,69.80
2022-09-01T19:12:10.640Z,69.70
2022-09-01T19:14:48.746Z,69.70
2022-09-01T19:17:44.664Z,70.00
2022-09-01T19:20:15.359Z,71.40
2022-09-01T19:22:57.058Z,72.20
2022-09-01T19:25:37.032Z,72.80
2022-09-01T19:28:15.574Z,73.30
2022-09-01T19:30:48.428Z,73.40
2022-09-01T19:33:20.826Z,74.00
2022-09-01T19:35:49.603Z,74.60
2022-09-01T19:38:27.793Z,74.40
2022-09-01T19:41:06.532Z,74.60
2022-09-01T19:43:38.026Z,75.50
2022-09-01T19:46:22.407Z,75.20
2022-09-01T19:48:55.798Z,75.10
2022-09-01T19:51:28.869Z,75.10
2022-09-01T19:54:04.330Z,74.80
2022-09-01T19:56:39.821Z,75.80
2022-09-01T19:59:15.674Z,76.00
2022-09-01T20:01:47.395Z,75.70
2022-09-01T20:04:27.712Z,75.80
2022-09-01T20:07:00.369Z,76.20
2022-09-01T20:09:38.732Z,76.50
2022-09-01T20:12:17.484Z,76.40
2022-09-01T20:15:07.584Z,76.50
2022-09-01T20:17:41.731Z,76.80
2022-09-01T20:20:11.832Z,77.10
2022-09-01T20:22:53.083Z,77.50
2022-09-01T20:25:30.018Z,77.70
2022-09-01T20:28:08.726Z,78.00
2022-09-01T20:30:51.110Z,77.80
2022-09-01T20:33:30.506Z,78.00
2022-09-01T20:36:05.667Z,78.00
2022-09-01T20:38:58.945Z,78.50
2022-09-01T20:41:39.258Z,79.30
2022-09-01T20:44:16.971Z,79.60
2022-09-01T20:46:47.431Z,79.10
2022-09-01T20:49:17.719Z,80.00
2022-09-01T20:51:51.940Z,80.10
2022-09-01T20:54:34.144Z,79.90
2022-09-01T20:57:20.964Z,78.70
2022-09-01T20:59:53.115Z,79.20
2022-09-01T21:02:42.191Z,78.90
2022-09-01T21:05:25.878Z,78.70
2022-09-01T21:08:11.153Z,78.70
2022-09-01T21:10:47.299Z,78.40
2022-09-01T21:13:30.471Z,78.90
2022-09-01T21:16:05.951Z,79.50
2022-09-01T21:18:48.161Z,80.00
2022-09-01T21:21:31.566Z,80.00
2022-09-01T21:24:01.030Z,80.10
2022-09-01T21:26:38.103Z,80.20
2022-09-01T21:29:22.650Z,80.20
2022-09-01T21:31:52.157Z,80.40
2022-09-01T21:34:19.213Z,80.50
2022-09-01T21:36:47.083Z,80.50
2022-09-01T21:39:14.581Z,80.20
2022-09-01T21:41:42.140Z,80.30
2022-09-01T21:44:10.717Z,80.00
2022-09-01T21:46:38.241Z,79.80
2022-09-01T21:49:05.468Z,79.80
2022-09-01T21:51:32.639Z,79.70
2022-09-01T21:53:59.623Z,79.80
2022-09-01T21:56:29.926Z,80.20
2022-09-01T21:58:59.320Z,80.20
2022-09-01T22:01:31.433Z,80.10
2022-09-01T22:04:04.286Z,79.90
2022-09-01T22:06:32.161Z,79.40
2022-09-01T22:09:01.102Z,79.90
2022-09-01T22:11:29.589Z,76.30
2022-09-01T22:14:00.900Z,74.70
2022-09-01T22:16:29.626Z,75.30
2022-09-01T22:18:59.054Z,72.60
2022-09-01T22:21:27.480Z,72.00
2022-09-01T22:23:54.510Z,70.90
2022-09-01T22:26:27.406Z,70.70
2022-09-01T22:28:55.227Z,70.40
2022-09-01T22:31:25.135Z,70.10
2022-09-01T22:33:54.139Z,70.00
2022-09-01T22:36:29.849Z,70.00
2022-09-01T22:39:00.495Z,70.10
2022-09-01T22:41:31.448Z,70.20
2022-09-01T22:44:00.090Z,70.20
2022-09-01T22:46:29.669Z,70.10
2022-09-01T22:48:59.785Z,70.20
2022-09-01T22:51:27.571Z,70.20
2022-09-01T22:53:55.070Z,70.40
2022-09-01T22:56:25.278Z,70.40
2022-09-01T22:58:57.453Z,70.50
2022-09-01T23:01:30.190Z,70.50
2022-09-01T23:04:04.841Z,70.50
2022-09-01T23:06:34.444Z,70.80
2022-09-01T23:09:05.970Z,70.70
2022-09-01T23:11:33.250Z,71.10
2022-09-01T23:14:00.278Z,71.10
2022-09-01T23:16:27.616Z,71.50
2022-09-01T23:18:55.448Z,71.00
2022-09-01T23:21:31.234Z,71.20
2022-09-01T23:23:59.315Z,71.70
2022-09-01T23:26:27.835Z,71.30
2022-09-01T23:28:57.433Z,71.40
2022-09-01T23:31:29.435Z,71.70
2022-09-01T23:33:56.979Z,71.60
2022-09-01T23:36:27.846Z,72.30
2022-09-01T23:38:56.272Z,72.50
2022-09-01T23:41:29.356Z,73.30
2022-09-01T23:44:00.086Z,73.30
2022-09-01T23:46:30.067Z,74.10
2022-09-01T23:49:04.760Z,74.80
2022-09-01T23:51:34.373Z,73.40
2022-09-01T23:54:08.811Z,73.90
2022-09-01T23:56:39.369Z,74.80
2022-09-01T23:59:09.641Z,76.20
